sensor_id;sensor_type;location;lat;lon;timestamp;temperature;humidity
24035;DHT22;12242;50.952;4.678;2022-07-09T00:01:27;19.90;99.90
24035;DHT22;12242;50.952;4.678;2022-07-09T00:03:56;19.90;99.90
24035;DHT22;12242;50.952;4.678;2022-07-09T00:06:24;19.90;99.90
24035;DHT22;12242;50.952;4.678;2022-07-09T00:08:51;19.80;99.90
24035;DHT22;12242;50.952;4.678;2022-07-09T00:11:19;19.80;99.90
24035;DHT22;12242;50.952;4.678;2022-07-09T00:13:46;19.80;99.90
24035;DHT22;12242;50.952;4.678;2022-07-09T00:16:14;19.90;99.90
24035;DHT22;12242;50.952;4.678;2022-07-09T00:18:44;19.90;99.90
24035;DHT22;12242;50.952;4.678;2022-07-09T00:21:14;19.90;99.90
24035;DHT22;12242;50.952;4.678;2022-07-09T00:23:41;19.90;99.90
24035;DHT22;12242;50.952;4.678;2022-07-09T00:26:09;19.90;99.90
24035;DHT22;12242;50.952;4.678;2022-07-09T00:28:36;19.80;99.90
24035;DHT22;12242;50.952;4.678;2022-07-09T00:31:04;19.80;99.90
24035;DHT22;12242;50.952;4.678;2022-07-09T00:33:33;19.80;99.90
24035;DHT22;12242;50.952;4.678;2022-07-09T00:36:01;19.70;99.90
24035;DHT22;12242;50.952;4.678;2022-07-09T00:38:33;19.60;99.90
24035;DHT22;12242;50.952;4.678;2022-07-09T00:41:01;19.60;99.90
24035;DHT22;12242;50.952;4.678;2022-07-09T00:43:28;19.30;99.90
24035;DHT22;12242;50.952;4.678;2022-07-09T00:45:58;18.90;99.90
24035;DHT22;12242;50.952;4.678;2022-07-09T00:48:25;18.70;99.90
24035;DHT22;12242;50.952;4.678;2022-07-09T00:50:53;18.70;99.90
24035;DHT22;12242;50.952;4.678;2022-07-09T00:53:23;18.80;99.90
24035;DHT22;12242;50.952;4.678;2022-07-09T00:55:53;18.80;99.90
24035;DHT22;12242;50.952;4.678;2022-07-09T00:58:22;18.80;99.90
24035;DHT22;12242;50.952;4.678;2022-07-09T01:00:52;18.20;99.90
24035;DHT22;12242;50.952;4.678;2022-07-09T01:03:19;18.10;99.90
24035;DHT22;12242;50.952;4.678;2022-07-09T01:05:47;18.20;99.90
24035;DHT22;12242;50.952;4.678;2022-07-09T01:08:15;18.20;99.90
24035;DHT22;12242;50.952;4.678;2022-07-09T01:10:43;18.30;99.90
24035;DHT22;12242;50.952;4.678;2022-07-09T01:13:11;18.40;99.90
24035;DHT22;12242;50.952;4.678;2022-07-09T01:15:39;18.50;99.90
24035;DHT22;12242;50.952;4.678;2022-07-09T01:18:10;18.50;99.90
24035;DHT22;12242;50.952;4.678;2022-07-09T01:20:38;18.60;99.90
24035;DHT22;12242;50.952;4.678;2022-07-09T01:23:05;18.60;99.90
24035;DHT22;12242;50.952;4.678;2022-07-09T01:25:51;18.60;99.90
24035;DHT22;12242;50.952;4.678;2022-07-09T01:28:18;18.60;99.90
24035;DHT22;12242;50.952;4.678;2022-07-09T01:30:46;18.60;99.90
24035;DHT22;12242;50.952;4.678;2022-07-09T01:33:16;18.70;99.90
24035;DHT22;12242;50.952;4.678;2022-07-09T01:35:49;18.70;99.90
24035;DHT22;12242;50.952;4.678;2022-07-09T01:38:16;18.70;99.90
24035;DHT22;12242;50.952;4.678;2022-07-09T01:40:46;18.70;99.90
24035;DHT22;12242;50.952;4.678;2022-07-09T01:43:13;18.70;99.90
24035;DHT22;12242;50.952;4.678;2022-07-09T01:45:43;18.70;99.90
24035;DHT22;12242;50.952;4.678;2022-07-09T01:48:10;18.70;99.90
24035;DHT22;12242;50.952;4.678;2022-07-09T01:50:38;18.60;99.90
24035;DHT22;12242;50.952;4.678;2022-07-09T01:53:06;18.70;99.90
24035;DHT22;12242;50.952;4.678;2022-07-09T01:55:33;18.60;99.90
24035;DHT22;12242;50.952;4.678;2022-07-09T01:58:01;18.60;99.90
24035;DHT22;12242;50.952;4.678;2022-07-09T02:00:28;18.60;99.90
24035;DHT22;12242;50.952;4.678;2022-07-09T02:02:56;18.70;99.90
24035;DHT22;12242;50.952;4.678;2022-07-09T02:05:26;18.80;99.90
24035;DHT22;12242;50.952;4.678;2022-07-09T02:07:55;18.70;99.90
24035;DHT22;12242;50.952;4.678;2022-07-09T02:10:23;18.70;99.90
24035;DHT22;12242;50.952;4.678;2022-07-09T02:12:50;18.70;99.90
24035;DHT22;12242;50.952;4.678;2022-07-09T02:15:18;18.70;99.90
24035;DHT22;12242;50.952;4.678;2022-07-09T02:17:46;18.70;99.90
24035;DHT22;12242;50.952;4.678;2022-07-09T02:20:13;18.60;99.90
24035;DHT22;12242;50.952;4.678;2022-07-09T02:22:41;18.60;99.90
24035;DHT22;12242;50.952;4.678;2022-07-09T02:25:09;18.60;99.90
24035;DHT22;12242;50.952;4.678;2022-07-09T02:27:41;18.60;99.90
24035;DHT22;12242;50.952;4.678;2022-07-09T02:30:11;18.50;99.90
24035;DHT22;12242;50.952;4.678;2022-07-09T02:32:39;18.50;99.90
24035;DHT22;12242;50.952;4.678;2022-07-09T02:35:09;18.20;99.90
24035;DHT22;12242;50.952;4.678;2022-07-09T02:37:39;18.20;99.90
24035;DHT22;12242;50.952;4.678;2022-07-09T02:40:09;18.20;99.90
24035;DHT22;12242;50.952;4.678;2022-07-09T02:42:36;18.30;99.90
24035;DHT22;12242;50.952;4.678;2022-07-09T02:45:08;18.30;99.90
24035;DHT22;12242;50.952;4.678;2022-07-09T02:47:36;18.30;99.90
24035;DHT22;12242;50.952;4.678;2022-07-09T02:50:03;18.30;99.90
24035;DHT22;12242;50.952;4.678;2022-07-09T02:52:31;18.20;99.90
24035;DHT22;12242;50.952;4.678;2022-07-09T02:54:59;18.20;99.90
24035;DHT22;12242;50.952;4.678;2022-07-09T02:57:29;18.20;99.90
24035;DHT22;12242;50.952;4.678;2022-07-09T02:59:56;18.20;99.90
24035;DHT22;12242;50.952;4.678;2022-07-09T03:02:23;18.10;99.90
24035;DHT22;12242;50.952;4.678;2022-07-09T03:04:50;18.20;99.90
24035;DHT22;12242;50.952;4.678;2022-07-09T03:07:18;18.30;99.90
24035;DHT22;12242;50.952;4.678;2022-07-09T03:09:47;18.30;99.90
24035;DHT22;12242;50.952;4.678;2022-07-09T03:12:17;18.30;99.90
24035;DHT22;12242;50.952;4.678;2022-07-09T03:14:47;18.30;99.90
24035;DHT22;12242;50.952;4.678;2022-07-09T03:17:14;18.20;99.90
24035;DHT22;12242;50.952;4.678;2022-07-09T03:19:44;18.10;99.90
24035;DHT22;12242;50.952;4.678;2022-07-09T03:22:11;18.10;99.90
24035;DHT22;12242;50.952;4.678;2022-07-09T03:24:39;18.10;99.90
24035;DHT22;12242;50.952;4.678;2022-07-09T03:27:09;18.20;99.90
24035;DHT22;12242;50.952;4.678;2022-07-09T03:29:36;18.10;99.90
24035;DHT22;12242;50.952;4.678;2022-07-09T03:32:04;18.10;99.90
24035;DHT22;12242;50.952;4.678;2022-07-09T03:34:32;18.00;99.90
24035;DHT22;12242;50.952;4.678;2022-07-09T03:36:59;18.00;99.90
24035;DHT22;12242;50.952;4.678;2022-07-09T03:39:27;18.00;99.90
24035;DHT22;12242;50.952;4.678;2022-07-09T03:41:54;18.00;99.90
24035;DHT22;12242;50.952;4.678;2022-07-09T03:44:21;17.90;99.90
24035;DHT22;12242;50.952;4.678;2022-07-09T03:46:51;17.90;99.90
24035;DHT22;12242;50.952;4.678;2022-07-09T03:49:18;17.90;99.90
24035;DHT22;12242;50.952;4.678;2022-07-09T03:51:46;17.90;99.90
24035;DHT22;12242;50.952;4.678;2022-07-09T03:54:33;17.90;99.90
24035;DHT22;12242;50.952;4.678;2022-07-09T03:57:03;18.00;99.90
24035;DHT22;12242;50.952;4.678;2022-07-09T03:59:30;18.00;99.90
24035;DHT22;12242;50.952;4.678;2022-07-09T04:01:58;18.10;99.90
24035;DHT22;12242;50.952;4.678;2022-07-09T04:04:25;18.10;99.90
24035;DHT22;12242;50.952;4.678;2022-07-09T04:06:56;18.20;99.90
24035;DHT22;12242;50.952;4.678;2022-07-09T04:09:23;18.30;99.90
24035;DHT22;12242;50.952;4.678;2022-07-09T04:11:54;18.30;99.90
24035;DHT22;12242;50.952;4.678;2022-07-09T04:14:21;18.40;99.90
24035;DHT22;12242;50.952;4.678;2022-07-09T04:16:48;18.40;99.90
24035;DHT22;12242;50.952;4.678;2022-07-09T04:19:16;18.50;99.90
24035;DHT22;12242;50.952;4.678;2022-07-09T04:21:43;18.50;99.90
24035;DHT22;12242;50.952;4.678;2022-07-09T04:24:11;18.50;99.90
24035;DHT22;12242;50.952;4.678;2022-07-09T04:26:43;18.50;99.90
24035;DHT22;12242;50.952;4.678;2022-07-09T04:29:11;18.50;99.90
24035;DHT22;12242;50.952;4.678;2022-07-09T04:31:39;18.60;99.90
24035;DHT22;12242;50.952;4.678;2022-07-09T04:34:17;18.60;99.90
24035;DHT22;12242;50.952;4.678;2022-07-09T04:36:53;18.60;99.90
24035;DHT22;12242;50.952;4.678;2022-07-09T04:39:21;18.60;99.90
24035;DHT22;12242;50.952;4.678;2022-07-09T04:41:51;18.60;99.90
24035;DHT22;12242;50.952;4.678;2022-07-09T04:44:18;18.60;99.90
24035;DHT22;12242;50.952;4.678;2022-07-09T04:46:48;18.70;99.90
24035;DHT22;12242;50.952;4.678;2022-07-09T04:49:17;18.70;99.90
24035;DHT22;12242;50.952;4.678;2022-07-09T04:51:45;18.80;99.90
24035;DHT22;12242;50.952;4.678;2022-07-09T04:54:12;18.90;99.90
24035;DHT22;12242;50.952;4.678;2022-07-09T04:56:39;18.90;99.90
24035;DHT22;12242;50.952;4.678;2022-07-09T04:59:07;18.90;99.90
24035;DHT22;12242;50.952;4.678;2022-07-09T05:01:34;19.00;99.90
24035;DHT22;12242;50.952;4.678;2022-07-09T05:04:04;19.00;99.90
24035;DHT22;12242;50.952;4.678;2022-07-09T05:06:33;19.20;99.90
24035;DHT22;12242;50.952;4.678;2022-07-09T05:09:01;19.20;99.90
24035;DHT22;12242;50.952;4.678;2022-07-09T05:11:28;19.20;99.90
24035;DHT22;12242;50.952;4.678;2022-07-09T05:13:59;19.30;99.90
24035;DHT22;12242;50.952;4.678;2022-07-09T05:16:30;19.30;99.90
24035;DHT22;12242;50.952;4.678;2022-07-09T05:19:00;19.40;99.90
24035;DHT22;12242;50.952;4.678;2022-07-09T05:21:30;19.30;99.90
24035;DHT22;12242;50.952;4.678;2022-07-09T05:23:58;19.40;99.90
24035;DHT22;12242;50.952;4.678;2022-07-09T05:26:26;19.50;99.90
24035;DHT22;12242;50.952;4.678;2022-07-09T05:28:56;19.60;99.90
24035;DHT22;12242;50.952;4.678;2022-07-09T05:31:24;19.60;99.90
24035;DHT22;12242;50.952;4.678;2022-07-09T05:34:02;19.60;99.90
24035;DHT22;12242;50.952;4.678;2022-07-09T05:36:30;19.80;99.90
24035;DHT22;12242;50.952;4.678;2022-07-09T05:38:58;19.90;99.90
24035;DHT22;12242;50.952;4.678;2022-07-09T05:41:26;20.00;99.90
24035;DHT22;12242;50.952;4.678;2022-07-09T05:43:56;20.00;99.90
24035;DHT22;12242;50.952;4.678;2022-07-09T05:46:23;20.00;99.90
24035;DHT22;12242;50.952;4.678;2022-07-09T05:48:51;20.20;99.90
24035;DHT22;12242;50.952;4.678;2022-07-09T05:51:19;20.30;99.90
24035;DHT22;12242;50.952;4.678;2022-07-09T05:53:46;20.40;99.90
24035;DHT22;12242;50.952;4.678;2022-07-09T05:56:13;20.50;99.90
24035;DHT22;12242;50.952;4.678;2022-07-09T05:58:41;20.70;99.90
24035;DHT22;12242;50.952;4.678;2022-07-09T06:01:11;20.90;99.90
24035;DHT22;12242;50.952;4.678;2022-07-09T06:03:41;21.00;99.90
24035;DHT22;12242;50.952;4.678;2022-07-09T06:06:10;21.00;99.90
24035;DHT22;12242;50.952;4.678;2022-07-09T06:08:38;21.00;99.90
24035;DHT22;12242;50.952;4.678;2022-07-09T06:11:05;21.30;99.90
24035;DHT22;12242;50.952;4.678;2022-07-09T06:13:35;21.40;99.90
24035;DHT22;12242;50.952;4.678;2022-07-09T06:16:06;21.50;99.90
24035;DHT22;12242;50.952;4.678;2022-07-09T06:18:36;21.70;99.90
24035;DHT22;12242;50.952;4.678;2022-07-09T06:21:04;21.90;99.90
24035;DHT22;12242;50.952;4.678;2022-07-09T06:23:32;21.90;99.90
24035;DHT22;12242;50.952;4.678;2022-07-09T06:26:00;21.90;99.90
24035;DHT22;12242;50.952;4.678;2022-07-09T06:28:30;22.00;99.90
24035;DHT22;12242;50.952;4.678;2022-07-09T06:30:57;22.00;99.90
24035;DHT22;12242;50.952;4.678;2022-07-09T06:33:25;22.00;99.90
24035;DHT22;12242;50.952;4.678;2022-07-09T06:35:53;21.90;99.90
24035;DHT22;12242;50.952;4.678;2022-07-09T06:38:20;21.90;99.90
24035;DHT22;12242;50.952;4.678;2022-07-09T06:40:55;22.00;99.90
24035;DHT22;12242;50.952;4.678;2022-07-09T06:43:23;22.10;99.90
24035;DHT22;12242;50.952;4.678;2022-07-09T06:45:53;22.20;99.90
24035;DHT22;12242;50.952;4.678;2022-07-09T06:48:20;22.30;99.90
24035;DHT22;12242;50.952;4.678;2022-07-09T06:50:48;22.40;99.90
24035;DHT22;12242;50.952;4.678;2022-07-09T06:53:15;22.40;99.90
24035;DHT22;12242;50.952;4.678;2022-07-09T06:55:46;22.50;99.90
24035;DHT22;12242;50.952;4.678;2022-07-09T06:58:14;22.60;99.90
24035;DHT22;12242;50.952;4.678;2022-07-09T07:00:42;22.80;99.90
24035;DHT22;12242;50.952;4.678;2022-07-09T07:03:11;22.80;99.90
24035;DHT22;12242;50.952;4.678;2022-07-09T07:05:45;22.70;99.90
24035;DHT22;12242;50.952;4.678;2022-07-09T07:08:16;22.80;99.90
24035;DHT22;12242;50.952;4.678;2022-07-09T07:10:45;22.70;99.90
24035;DHT22;12242;50.952;4.678;2022-07-09T07:13:15;22.50;99.90
24035;DHT22;12242;50.952;4.678;2022-07-09T07:15:43;22.50;99.90
24035;DHT22;12242;50.952;4.678;2022-07-09T07:18:11;22.80;99.90
24035;DHT22;12242;50.952;4.678;2022-07-09T07:20:39;23.00;99.90
24035;DHT22;12242;50.952;4.678;2022-07-09T07:23:07;23.20;99.90
24035;DHT22;12242;50.952;4.678;2022-07-09T07:25:34;23.30;99.90
24035;DHT22;12242;50.952;4.678;2022-07-09T07:28:09;23.30;99.90
24035;DHT22;12242;50.952;4.678;2022-07-09T07:30:37;23.20;99.90
24035;DHT22;12242;50.952;4.678;2022-07-09T07:33:04;23.10;99.90
24035;DHT22;12242;50.952;4.678;2022-07-09T07:35:32;23.10;99.90
24035;DHT22;12242;50.952;4.678;2022-07-09T07:38:02;23.00;99.90
24035;DHT22;12242;50.952;4.678;2022-07-09T07:40:29;23.10;99.90
24035;DHT22;12242;50.952;4.678;2022-07-09T07:42:57;23.10;99.90
24035;DHT22;12242;50.952;4.678;2022-07-09T07:45:27;23.20;99.90
24035;DHT22;12242;50.952;4.678;2022-07-09T07:47:54;23.20;99.90
24035;DHT22;12242;50.952;4.678;2022-07-09T07:50:22;23.50;99.90
24035;DHT22;12242;50.952;4.678;2022-07-09T07:52:50;23.70;99.90
24035;DHT22;12242;50.952;4.678;2022-07-09T07:55:18;23.90;99.90
24035;DHT22;12242;50.952;4.678;2022-07-09T07:57:50;24.10;99.90
24035;DHT22;12242;50.952;4.678;2022-07-09T08:00:18;24.40;99.90
24035;DHT22;12242;50.952;4.678;2022-07-09T08:02:46;24.80;99.90
24035;DHT22;12242;50.952;4.678;2022-07-09T08:05:13;25.40;99.50
24035;DHT22;12242;50.952;4.678;2022-07-09T08:07:41;25.60;97.00
24035;DHT22;12242;50.952;4.678;2022-07-09T08:10:11;25.70;96.30
24035;DHT22;12242;50.952;4.678;2022-07-09T08:12:39;25.70;95.60
24035;DHT22;12242;50.952;4.678;2022-07-09T08:15:06;26.10;95.20
24035;DHT22;12242;50.952;4.678;2022-07-09T08:17:36;26.20;93.90
24035;DHT22;12242;50.952;4.678;2022-07-09T08:20:05;26.20;94.80
24035;DHT22;12242;50.952;4.678;2022-07-09T08:22:32;26.80;95.20
24035;DHT22;12242;50.952;4.678;2022-07-09T08:25:02;27.20;93.70
24035;DHT22;12242;50.952;4.678;2022-07-09T08:27:30;27.50;93.20
24035;DHT22;12242;50.952;4.678;2022-07-09T08:29:58;27.60;93.70
24035;DHT22;12242;50.952;4.678;2022-07-09T08:32:25;28.20;93.90
24035;DHT22;12242;50.952;4.678;2022-07-09T08:34:58;28.00;91.00
24035;DHT22;12242;50.952;4.678;2022-07-09T08:37:25;27.90;92.70
24035;DHT22;12242;50.952;4.678;2022-07-09T08:39:53;27.90;90.90
24035;DHT22;12242;50.952;4.678;2022-07-09T08:42:24;28.00;91.80
24035;DHT22;12242;50.952;4.678;2022-07-09T08:44:52;27.90;91.50
24035;DHT22;12242;50.952;4.678;2022-07-09T08:47:21;27.60;89.00
24035;DHT22;12242;50.952;4.678;2022-07-09T08:49:55;27.70;90.60
24035;DHT22;12242;50.952;4.678;2022-07-09T08:52:24;28.10;91.60
24035;DHT22;12242;50.952;4.678;2022-07-09T08:54:53;28.70;90.70
24035;DHT22;12242;50.952;4.678;2022-07-09T08:57:27;28.90;87.80
24035;DHT22;12242;50.952;4.678;2022-07-09T08:59:57;28.90;89.20
24035;DHT22;12242;50.952;4.678;2022-07-09T09:02:24;28.80;87.60
24035;DHT22;12242;50.952;4.678;2022-07-09T09:04:54;28.60;86.00
24035;DHT22;12242;50.952;4.678;2022-07-09T09:07:22;28.00;90.10
24035;DHT22;12242;50.952;4.678;2022-07-09T09:09:49;27.70;90.60
24035;DHT22;12242;50.952;4.678;2022-07-09T09:12:26;27.00;90.00
24035;DHT22;12242;50.952;4.678;2022-07-09T09:14:54;26.60;90.80
24035;DHT22;12242;50.952;4.678;2022-07-09T09:17:24;26.40;91.50
24035;DHT22;12242;50.952;4.678;2022-07-09T09:19:52;26.50;92.20
24035;DHT22;12242;50.952;4.678;2022-07-09T09:22:20;26.70;92.10
24035;DHT22;12242;50.952;4.678;2022-07-09T09:24:50;26.90;91.20
24035;DHT22;12242;50.952;4.678;2022-07-09T09:27:18;27.40;92.20
24035;DHT22;12242;50.952;4.678;2022-07-09T09:29:53;27.90;92.10
24035;DHT22;12242;50.952;4.678;2022-07-09T09:32:24;28.40;90.30
24035;DHT22;12242;50.952;4.678;2022-07-09T09:34:52;28.80;91.00
24035;DHT22;12242;50.952;4.678;2022-07-09T09:37:33;28.80;90.90
24035;DHT22;12242;50.952;4.678;2022-07-09T09:40:09;28.90;90.10
24035;DHT22;12242;50.952;4.678;2022-07-09T09:42:40;29.20;91.40
24035;DHT22;12242;50.952;4.678;2022-07-09T09:45:13;29.60;90.30
24035;DHT22;12242;50.952;4.678;2022-07-09T09:47:46;30.00;87.70
24035;DHT22;12242;50.952;4.678;2022-07-09T09:50:21;30.50;88.20
24035;DHT22;12242;50.952;4.678;2022-07-09T09:52:53;30.60;87.20
24035;DHT22;12242;50.952;4.678;2022-07-09T09:55:26;30.90;87.40
24035;DHT22;12242;50.952;4.678;2022-07-09T09:57:57;30.80;84.00
24035;DHT22;12242;50.952;4.678;2022-07-09T10:00:25;30.30;83.70
24035;DHT22;12242;50.952;4.678;2022-07-09T10:02:55;30.30;85.40
24035;DHT22;12242;50.952;4.678;2022-07-09T10:05:22;30.70;83.00
24035;DHT22;12242;50.952;4.678;2022-07-09T10:07:50;30.50;83.30
24035;DHT22;12242;50.952;4.678;2022-07-09T10:10:20;29.80;84.40
24035;DHT22;12242;50.952;4.678;2022-07-09T10:12:50;29.20;84.70
24035;DHT22;12242;50.952;4.678;2022-07-09T10:15:24;28.80;86.10
24035;DHT22;12242;50.952;4.678;2022-07-09T10:17:54;28.80;88.30
24035;DHT22;12242;50.952;4.678;2022-07-09T10:20:34;28.80;90.10
24035;DHT22;12242;50.952;4.678;2022-07-09T10:23:03;28.40;85.90
24035;DHT22;12242;50.952;4.678;2022-07-09T10:25:43;28.20;87.50
24035;DHT22;12242;50.952;4.678;2022-07-09T10:28:15;27.90;89.60
24035;DHT22;12242;50.952;4.678;2022-07-09T10:30:47;28.00;90.40
24035;DHT22;12242;50.952;4.678;2022-07-09T10:33:22;27.80;90.40
24035;DHT22;12242;50.952;4.678;2022-07-09T10:35:51;27.50;90.80
24035;DHT22;12242;50.952;4.678;2022-07-09T10:38:22;27.30;91.20
24035;DHT22;12242;50.952;4.678;2022-07-09T10:41:01;27.60;92.30
24035;DHT22;12242;50.952;4.678;2022-07-09T10:43:48;28.50;92.20
24035;DHT22;12242;50.952;4.678;2022-07-09T10:46:16;28.90;90.90
24035;DHT22;12242;50.952;4.678;2022-07-09T10:48:45;29.00;90.00
24035;DHT22;12242;50.952;4.678;2022-07-09T10:51:21;28.80;90.20
24035;DHT22;12242;50.952;4.678;2022-07-09T10:53:50;28.60;91.00
24035;DHT22;12242;50.952;4.678;2022-07-09T10:56:21;28.70;91.60
24035;DHT22;12242;50.952;4.678;2022-07-09T10:58:49;29.40;91.40
24035;DHT22;12242;50.952;4.678;2022-07-09T11:01:24;29.40;88.30
24035;DHT22;12242;50.952;4.678;2022-07-09T11:03:56;29.10;91.10
24035;DHT22;12242;50.952;4.678;2022-07-09T11:06:25;29.00;90.50
24035;DHT22;12242;50.952;4.678;2022-07-09T11:08:53;28.80;90.50
24035;DHT22;12242;50.952;4.678;2022-07-09T11:11:23;29.00;90.00
24035;DHT22;12242;50.952;4.678;2022-07-09T11:13:53;28.90;87.40
24035;DHT22;12242;50.952;4.678;2022-07-09T11:16:26;28.60;90.00
24035;DHT22;12242;50.952;4.678;2022-07-09T11:18:57;28.50;88.70
24035;DHT22;12242;50.952;4.678;2022-07-09T11:21:25;28.70;89.80
24035;DHT22;12242;50.952;4.678;2022-07-09T11:23:57;28.10;89.00
24035;DHT22;12242;50.952;4.678;2022-07-09T11:26:25;27.80;88.30
24035;DHT22;12242;50.952;4.678;2022-07-09T11:28:54;28.30;90.60
24035;DHT22;12242;50.952;4.678;2022-07-09T11:31:22;28.50;88.10
24035;DHT22;12242;50.952;4.678;2022-07-09T11:33:49;29.10;86.80
24035;DHT22;12242;50.952;4.678;2022-07-09T11:36:54;29.60;86.80
24035;DHT22;12242;50.952;4.678;2022-07-09T11:39:26;30.00;84.30
24035;DHT22;12242;50.952;4.678;2022-07-09T11:41:57;30.00;85.60
24035;DHT22;12242;50.952;4.678;2022-07-09T11:44:29;30.30;85.80
24035;DHT22;12242;50.952;4.678;2022-07-09T11:47:11;30.70;85.90
24035;DHT22;12242;50.952;4.678;2022-07-09T11:49:41;30.90;81.20
24035;DHT22;12242;50.952;4.678;2022-07-09T11:52:19;30.90;80.10
24035;DHT22;12242;50.952;4.678;2022-07-09T11:55:10;30.90;79.90
24035;DHT22;12242;50.952;4.678;2022-07-09T11:57:38;30.90;80.10
24035;DHT22;12242;50.952;4.678;2022-07-09T12:00:08;30.90;80.20
24035;DHT22;12242;50.952;4.678;2022-07-09T12:02:49;30.80;79.90
24035;DHT22;12242;50.952;4.678;2022-07-09T12:05:34;30.60;77.60
24035;DHT22;12242;50.952;4.678;2022-07-09T12:08:07;30.40;78.50
24035;DHT22;12242;50.952;4.678;2022-07-09T12:10:36;30.20;77.40
24035;DHT22;12242;50.952;4.678;2022-07-09T12:13:04;29.80;77.20
24035;DHT22;12242;50.952;4.678;2022-07-09T12:15:33;29.50;79.80
24035;DHT22;12242;50.952;4.678;2022-07-09T12:18:01;29.60;80.70
24035;DHT22;12242;50.952;4.678;2022-07-09T12:20:30;29.40;80.10
24035;DHT22;12242;50.952;4.678;2022-07-09T12:22:59;29.00;81.70
24035;DHT22;12242;50.952;4.678;2022-07-09T12:25:26;28.40;82.00
24035;DHT22;12242;50.952;4.678;2022-07-09T12:27:55;28.10;83.80
24035;DHT22;12242;50.952;4.678;2022-07-09T12:30:23;27.90;80.70
24035;DHT22;12242;50.952;4.678;2022-07-09T12:32:53;27.60;80.30
24035;DHT22;12242;50.952;4.678;2022-07-09T12:35:21;27.10;83.10
24035;DHT22;12242;50.952;4.678;2022-07-09T12:37:48;27.30;84.40
24035;DHT22;12242;50.952;4.678;2022-07-09T12:40:16;27.40;83.50
24035;DHT22;12242;50.952;4.678;2022-07-09T12:42:44;27.10;84.70
24035;DHT22;12242;50.952;4.678;2022-07-09T12:45:11;27.00;86.50
24035;DHT22;12242;50.952;4.678;2022-07-09T12:47:41;27.10;84.80
24035;DHT22;12242;50.952;4.678;2022-07-09T12:50:12;27.10;86.10
24035;DHT22;12242;50.952;4.678;2022-07-09T12:52:39;27.30;84.80
24035;DHT22;12242;50.952;4.678;2022-07-09T12:55:07;27.50;87.00
24035;DHT22;12242;50.952;4.678;2022-07-09T12:57:35;27.50;85.50
24035;DHT22;12242;50.952;4.678;2022-07-09T13:00:04;27.40;83.00
24035;DHT22;12242;50.952;4.678;2022-07-09T13:02:32;27.50;85.40
24035;DHT22;12242;50.952;4.678;2022-07-09T13:05:02;27.80;84.90
24035;DHT22;12242;50.952;4.678;2022-07-09T13:07:30;27.90;82.90
24035;DHT22;12242;50.952;4.678;2022-07-09T13:09:59;28.00;83.00
24035;DHT22;12242;50.952;4.678;2022-07-09T13:12:32;27.90;81.30
24035;DHT22;12242;50.952;4.678;2022-07-09T13:15:00;27.90;79.80
24035;DHT22;12242;50.952;4.678;2022-07-09T13:17:28;27.90;82.50
24035;DHT22;12242;50.952;4.678;2022-07-09T13:19:59;27.80;83.00
24035;DHT22;12242;50.952;4.678;2022-07-09T13:22:27;27.80;82.40
24035;DHT22;12242;50.952;4.678;2022-07-09T13:24:57;27.70;83.30
24035;DHT22;12242;50.952;4.678;2022-07-09T13:27:26;27.70;80.80
24035;DHT22;12242;50.952;4.678;2022-07-09T13:29:54;27.70;80.90
24035;DHT22;12242;50.952;4.678;2022-07-09T13:32:25;27.70;82.30
24035;DHT22;12242;50.952;4.678;2022-07-09T13:34:54;27.90;83.40
24035;DHT22;12242;50.952;4.678;2022-07-09T13:37:21;28.00;78.40
24035;DHT22;12242;50.952;4.678;2022-07-09T13:39:50;27.80;80.00
24035;DHT22;12242;50.952;4.678;2022-07-09T13:42:18;27.50;79.70
24035;DHT22;12242;50.952;4.678;2022-07-09T13:44:48;27.30;80.30
24035;DHT22;12242;50.952;4.678;2022-07-09T13:47:18;27.40;80.50
24035;DHT22;12242;50.952;4.678;2022-07-09T13:49:45;27.10;79.10
24035;DHT22;12242;50.952;4.678;2022-07-09T13:52:15;27.10;80.20
24035;DHT22;12242;50.952;4.678;2022-07-09T13:54:43;27.30;78.50
24035;DHT22;12242;50.952;4.678;2022-07-09T13:57:12;27.50;79.10
24035;DHT22;12242;50.952;4.678;2022-07-09T13:59:43;27.60;80.90
24035;DHT22;12242;50.952;4.678;2022-07-09T14:02:10;27.60;79.80
24035;DHT22;12242;50.952;4.678;2022-07-09T14:04:47;27.60;80.10
24035;DHT22;12242;50.952;4.678;2022-07-09T14:07:17;27.60;79.70
24035;DHT22;12242;50.952;4.678;2022-07-09T14:09:45;27.70;78.40
24035;DHT22;12242;50.952;4.678;2022-07-09T14:12:16;27.60;77.40
24035;DHT22;12242;50.952;4.678;2022-07-09T14:14:43;27.60;76.90
24035;DHT22;12242;50.952;4.678;2022-07-09T14:17:11;27.60;77.70
24035;DHT22;12242;50.952;4.678;2022-07-09T14:19:38;27.20;77.60
24035;DHT22;12242;50.952;4.678;2022-07-09T14:22:06;27.00;78.10
24035;DHT22;12242;50.952;4.678;2022-07-09T14:24:34;27.10;80.90
24035;DHT22;12242;50.952;4.678;2022-07-09T14:27:03;27.20;79.70
24035;DHT22;12242;50.952;4.678;2022-07-09T14:29:41;27.30;80.80
24035;DHT22;12242;50.952;4.678;2022-07-09T14:32:12;27.50;81.60
24035;DHT22;12242;50.952;4.678;2022-07-09T14:34:40;27.40;76.10
24035;DHT22;12242;50.952;4.678;2022-07-09T14:37:09;27.00;77.40
24035;DHT22;12242;50.952;4.678;2022-07-09T14:39:36;26.60;80.00
24035;DHT22;12242;50.952;4.678;2022-07-09T14:42:04;26.70;82.90
24035;DHT22;12242;50.952;4.678;2022-07-09T14:44:31;26.80;79.20
24035;DHT22;12242;50.952;4.678;2022-07-09T14:47:00;26.70;77.70
24035;DHT22;12242;50.952;4.678;2022-07-09T14:49:28;26.70;81.30
24035;DHT22;12242;50.952;4.678;2022-07-09T14:51:56;26.60;79.70
24035;DHT22;12242;50.952;4.678;2022-07-09T14:54:24;26.40;79.80
24035;DHT22;12242;50.952;4.678;2022-07-09T14:56:52;26.50;82.00
24035;DHT22;12242;50.952;4.678;2022-07-09T14:59:19;26.50;81.20
24035;DHT22;12242;50.952;4.678;2022-07-09T15:01:49;26.30;79.90
24035;DHT22;12242;50.952;4.678;2022-07-09T15:04:19;26.30;79.10
24035;DHT22;12242;50.952;4.678;2022-07-09T15:06:46;26.20;79.00
24035;DHT22;12242;50.952;4.678;2022-07-09T15:09:14;26.20;77.60
24035;DHT22;12242;50.952;4.678;2022-07-09T15:11:48;26.20;77.60
24035;DHT22;12242;50.952;4.678;2022-07-09T15:14:16;26.10;78.10
24035;DHT22;12242;50.952;4.678;2022-07-09T15:16:44;25.90;79.00
24035;DHT22;12242;50.952;4.678;2022-07-09T15:19:11;25.80;76.30
24035;DHT22;12242;50.952;4.678;2022-07-09T15:21:39;25.80;78.30
24035;DHT22;12242;50.952;4.678;2022-07-09T15:24:13;25.80;78.40
24035;DHT22;12242;50.952;4.678;2022-07-09T15:27:03;25.70;78.00
24035;DHT22;12242;50.952;4.678;2022-07-09T15:29:35;25.40;81.10
24035;DHT22;12242;50.952;4.678;2022-07-09T15:32:06;25.50;80.00
24035;DHT22;12242;50.952;4.678;2022-07-09T15:34:34;25.40;78.70
24035;DHT22;12242;50.952;4.678;2022-07-09T15:37:31;25.40;77.80
24035;DHT22;12242;50.952;4.678;2022-07-09T15:40:00;25.40;80.00
24035;DHT22;12242;50.952;4.678;2022-07-09T15:42:30;25.40;79.90
24035;DHT22;12242;50.952;4.678;2022-07-09T15:45:08;25.30;78.80